createdAt,value
2019-03-24T00:01:22.155Z,5.30
2019-03-24T00:03:50.400Z,4.33
2019-03-24T00:06:18.681Z,5.87
2019-03-24T00:08:46.948Z,3.90
2019-03-24T00:11:15.303Z,4.10
2019-03-24T00:13:43.730Z,3.83
2019-03-24T00:16:11.975Z,4.53
2019-03-24T00:18:40.289Z,3.80
2019-03-24T00:21:08.608Z,4.47
2019-03-24T00:23:37.050Z,5.33
2019-03-24T00:26:05.326Z,4.00
2019-03-24T00:28:34.139Z,4.13
2019-03-24T00:31:02.457Z,4.13
2019-03-24T00:33:32.368Z,3.83
2019-03-24T00:36:00.606Z,3.17
2019-03-24T00:38:28.993Z,4.20
2019-03-24T00:40:57.371Z,3.20
2019-03-24T00:43:28.638Z,3.27
2019-03-24T00:45:57.016Z,3.03
2019-03-24T00:48:25.301Z,2.83
2019-03-24T00:50:53.581Z,3.07
2019-03-24T00:53:21.979Z,4.40
2019-03-24T00:55:50.545Z,4.27
2019-03-24T00:58:18.791Z,4.13
2019-03-24T01:00:49.137Z,3.67
2019-03-24T01:03:17.387Z,4.33
2019-03-24T01:05:45.741Z,4.00
2019-03-24T01:08:14.204Z,3.90
2019-03-24T01:10:42.501Z,4.10
2019-03-24T01:13:12.510Z,4.57
2019-03-24T01:15:47.648Z,4.07
2019-03-24T01:18:11.183Z,3.00
2019-03-24T01:20:39.459Z,5.43
2019-03-24T01:23:07.774Z,3.40
2019-03-24T01:25:36.118Z,3.70
2019-03-24T01:30:26.763Z,4.47
2019-03-24T01:32:55.050Z,4.27
2019-03-24T01:35:23.336Z,3.60
2019-03-24T01:37:51.662Z,4.13
2019-03-24T01:40:20.002Z,5.43
2019-03-24T01:42:48.248Z,4.23
2019-03-24T01:45:16.565Z,4.30
2019-03-24T01:47:44.870Z,6.00
2019-03-24T01:50:13.179Z,3.50
2019-03-24T01:52:41.628Z,3.80
2019-03-24T01:55:09.912Z,4.70
2019-03-24T01:57:38.157Z,4.70
2019-03-24T02:00:07.533Z,3.50
2019-03-24T02:02:35.798Z,4.30
2019-03-24T02:05:08.296Z,4.30
2019-03-24T02:07:36.621Z,3.63
2019-03-24T02:10:07.058Z,3.67
2019-03-24T02:12:35.463Z,3.57
2019-03-24T02:15:05.561Z,4.80
2019-03-24T02:17:33.863Z,3.40
2019-03-24T02:20:02.311Z,4.77
2019-03-24T02:22:30.635Z,5.20
2019-03-24T02:24:58.936Z,5.80
2019-03-24T02:27:27.404Z,3.80
2019-03-24T02:29:55.714Z,5.27
2019-03-24T02:32:23.966Z,5.03
2019-03-24T02:34:52.336Z,4.93
2019-03-24T02:37:20.590Z,3.23
2019-03-24T02:39:49.090Z,6.07
2019-03-24T02:42:17.488Z,4.83
2019-03-24T02:44:45.738Z,5.50
2019-03-24T02:47:14.034Z,3.90
2019-03-24T02:49:42.313Z,4.87
2019-03-24T02:52:10.551Z,4.40
2019-03-24T02:54:38.827Z,6.07
2019-03-24T02:57:07.115Z,4.97
2019-03-24T02:59:35.547Z,5.10
2019-03-24T03:02:03.846Z,5.07
2019-03-24T03:04:32.116Z,2.80
2019-03-24T03:07:00.514Z,4.93
2019-03-24T03:09:28.818Z,4.37
2019-03-24T03:11:57.094Z,5.00
2019-03-24T03:14:25.459Z,4.13
2019-03-24T03:16:53.877Z,5.37
2019-03-24T03:19:22.266Z,3.60
2019-03-24T03:21:50.761Z,3.10
2019-03-24T03:24:19.011Z,4.23
2019-03-24T03:26:47.310Z,3.50
2019-03-24T03:29:15.688Z,3.63
2019-03-24T03:31:43.949Z,4.13
2019-03-24T03:34:12.229Z,4.40
2019-03-24T03:36:40.566Z,3.80
2019-03-24T03:39:08.822Z,3.70
2019-03-24T03:41:37.088Z,4.10
2019-03-24T03:44:05.357Z,5.30
2019-03-24T03:46:33.937Z,4.40
2019-03-24T03:49:02.243Z,5.33
2019-03-24T03:51:30.462Z,4.30
2019-03-24T03:53:59.191Z,6.20
2019-03-24T03:56:27.812Z,4.93
2019-03-24T03:58:56.064Z,4.00
2019-03-24T04:01:24.452Z,4.80
2019-03-24T04:03:52.792Z,4.43
2019-03-24T04:06:21.024Z,5.20
2019-03-24T04:08:49.452Z,4.80
2019-03-24T04:11:19.130Z,4.10
2019-03-24T04:13:47.364Z,4.50
2019-03-24T04:16:15.644Z,4.43
2019-03-24T04:18:43.916Z,4.90
2019-03-24T04:21:12.275Z,4.70
2019-03-24T04:23:40.524Z,4.03
2019-03-24T04:26:09.065Z,5.27
2019-03-24T04:28:37.361Z,4.73
2019-03-24T04:31:05.595Z,4.80
2019-03-24T04:33:33.963Z,4.87
2019-03-24T04:36:02.317Z,5.67
2019-03-24T04:38:30.567Z,4.27
2019-03-24T04:40:59.057Z,4.60
2019-03-24T04:43:27.311Z,5.37
2019-03-24T04:45:55.669Z,5.77
2019-03-24T04:48:23.939Z,4.87
2019-03-24T04:50:52.226Z,5.60
2019-03-24T04:53:20.850Z,5.37
2019-03-24T04:55:50.760Z,5.40
2019-03-24T04:58:19.007Z,5.00
2019-03-24T05:00:47.281Z,5.10
2019-03-24T05:03:15.576Z,5.50
2019-03-24T05:05:43.958Z,4.67
2019-03-24T05:08:12.787Z,4.83
2019-03-24T05:10:41.143Z,5.10
2019-03-24T05:13:09.437Z,5.20
2019-03-24T05:15:37.785Z,5.73
2019-03-24T05:18:06.093Z,5.10
2019-03-24T05:20:34.469Z,5.87
2019-03-24T05:36:12.838Z,5.60
2019-03-24T05:38:41.221Z,4.90
2019-03-24T05:41:09.516Z,5.13
2019-03-24T05:43:39.250Z,6.77
2019-03-24T05:46:07.642Z,5.37
2019-03-24T05:48:35.882Z,4.87
2019-03-24T05:51:05.008Z,5.87
2019-03-24T05:53:33.311Z,5.90
2019-03-24T05:56:01.685Z,6.87
2019-03-24T05:58:30.003Z,6.30
2019-03-24T06:00:58.312Z,5.87
2019-03-24T06:03:26.581Z,5.40
2019-03-24T06:05:54.878Z,4.90
2019-03-24T06:08:23.258Z,5.97
2019-03-24T06:10:51.519Z,6.57
2019-03-24T06:13:19.817Z,4.53
2019-03-24T06:15:48.077Z,4.47
2019-03-24T06:18:16.320Z,5.47
2019-03-24T06:20:44.647Z,4.37
2019-03-24T06:23:12.921Z,5.40
2019-03-24T06:25:41.205Z,4.70
2019-03-24T06:28:09.519Z,4.90
2019-03-24T06:30:37.848Z,5.03
2019-03-24T06:33:06.058Z,4.63
2019-03-24T06:35:34.306Z,5.90
2019-03-24T06:38:02.714Z,5.60
2019-03-24T06:40:31.115Z,6.20
2019-03-24T06:43:00.378Z,5.33
2019-03-24T06:45:29.095Z,6.43
2019-03-24T06:47:58.390Z,5.63
2019-03-24T06:50:26.765Z,6.00
2019-03-24T06:52:55.018Z,6.70
2019-03-24T06:55:23.311Z,5.77
2019-03-24T06:57:51.552Z,5.80
2019-03-24T07:00:19.807Z,6.67
2019-03-24T07:02:48.222Z,7.60
2019-03-24T07:05:16.609Z,7.93
2019-03-24T07:07:44.954Z,8.30
2019-03-24T07:10:13.245Z,7.83
2019-03-24T07:12:41.518Z,6.40
2019-03-24T07:15:09.786Z,7.17
2019-03-24T07:17:39.410Z,5.77
2019-03-24T07:20:07.837Z,6.37
2019-03-24T07:22:36.894Z,7.00
2019-03-24T07:25:05.371Z,8.30
2019-03-24T07:27:33.755Z,6.83
2019-03-24T07:30:50.938Z,5.97
2019-03-24T07:33:19.208Z,5.50
2019-03-24T07:35:47.458Z,5.67
2019-03-24T07:38:15.773Z,6.43
2019-03-24T07:40:44.070Z,5.10
2019-03-24T07:43:12.312Z,6.83
2019-03-24T07:45:40.594Z,5.60
2019-03-24T07:48:18.699Z,6.67
2019-03-24T07:50:39.299Z,5.50
2019-03-24T07:53:07.548Z,6.13
2019-03-24T07:55:36.084Z,6.13
2019-03-24T07:58:04.357Z,5.60
2019-03-24T08:00:34.194Z,4.80
2019-03-24T08:03:02.437Z,6.20
2019-03-24T08:05:30.717Z,5.67
2019-03-24T08:07:59.009Z,5.50
2019-03-24T08:10:27.518Z,4.80
2019-03-24T08:12:56.036Z,4.77
2019-03-24T08:15:24.436Z,4.90
2019-03-24T08:17:52.679Z,6.50
2019-03-24T08:20:20.924Z,4.93
2019-03-24T08:22:49.191Z,4.53
2019-03-24T08:25:19.142Z,5.53
2019-03-24T08:27:47.680Z,4.30
2019-03-24T08:30:19.236Z,4.20
2019-03-24T08:32:47.514Z,4.47
2019-03-24T08:35:15.812Z,5.97
2019-03-24T08:37:44.172Z,4.83
2019-03-24T08:40:12.418Z,4.63
2019-03-24T08:42:40.848Z,4.67
2019-03-24T08:45:12.421Z,6.33
2019-03-24T08:47:40.660Z,3.90
2019-03-24T08:50:08.932Z,3.20
2019-03-24T08:52:37.651Z,3.70
2019-03-24T08:55:06.640Z,4.53
2019-03-24T08:57:34.934Z,4.07
2019-03-24T09:00:04.148Z,4.60
2019-03-24T09:02:32.503Z,4.20
2019-03-24T09:05:00.842Z,4.90
2019-03-24T09:07:29.151Z,3.93
2019-03-24T09:09:57.395Z,4.17
2019-03-24T09:12:25.667Z,5.70
2019-03-24T09:14:54.547Z,3.30
2019-03-24T09:17:22.890Z,2.77
2019-03-24T09:19:51.566Z,4.53
2019-03-24T09:22:19.826Z,3.70
2019-03-24T09:24:48.118Z,4.60
2019-03-24T09:27:16.378Z,3.70
2019-03-24T09:29:44.630Z,3.93
2019-03-24T09:32:12.909Z,3.10
2019-03-24T09:34:41.196Z,4.00
2019-03-24T09:37:09.441Z,3.50
2019-03-24T09:39:37.782Z,3.90
2019-03-24T09:42:06.160Z,3.83
2019-03-24T09:44:34.410Z,2.93
2019-03-24T09:47:02.691Z,3.57
2019-03-24T09:49:30.934Z,2.97
2019-03-24T09:51:59.229Z,3.40
2019-03-24T09:54:27.474Z,3.47
2019-03-24T09:56:55.863Z,3.70
2019-03-24T09:59:24.875Z,3.13
2019-03-24T10:01:53.162Z,3.83
2019-03-24T10:04:21.480Z,4.30
2019-03-24T10:06:49.745Z,3.80
2019-03-24T10:09:18.223Z,2.70
2019-03-24T10:11:46.466Z,4.50
2019-03-24T10:14:14.750Z,3.63
2019-03-24T10:16:43.041Z,2.70
2019-03-24T10:19:14.360Z,3.60
2019-03-24T10:21:41.452Z,2.90
2019-03-24T10:24:09.734Z,2.50
2019-03-24T10:26:38.007Z,3.30
2019-03-24T10:29:06.455Z,4.20
2019-03-24T10:31:34.719Z,4.17
2019-03-24T10:34:03.540Z,3.40
2019-03-24T10:36:32.242Z,1.67
2019-03-24T10:39:00.516Z,2.53
2019-03-24T10:41:28.865Z,2.50
2019-03-24T10:43:57.178Z,3.40
2019-03-24T10:46:25.744Z,2.10
2019-03-24T10:48:54.093Z,2.90
2019-03-24T10:51:22.346Z,4.60
2019-03-24T10:53:51.180Z,2.30
2019-03-24T10:56:19.495Z,2.63
2019-03-24T10:58:48.201Z,3.37
2019-03-24T11:01:16.416Z,3.67
2019-03-24T11:03:44.771Z,2.87
2019-03-24T11:06:13.404Z,3.00
2019-03-24T11:08:42.321Z,3.00
2019-03-24T11:11:13.501Z,2.80
2019-03-24T11:13:41.760Z,3.10
2019-03-24T11:16:10.005Z,4.00
2019-03-24T11:18:38.308Z,2.90
2019-03-24T11:21:08.814Z,4.37
2019-03-24T11:23:36.742Z,3.40
2019-03-24T11:26:04.987Z,3.73
2019-03-24T11:28:33.824Z,2.50
2019-03-24T11:31:02.423Z,3.63
2019-03-24T11:33:30.707Z,2.40
2019-03-24T11:35:59.079Z,3.30
2019-03-24T11:38:27.376Z,3.30
2019-03-24T11:40:55.738Z,2.90
2019-03-24T11:43:24.032Z,3.80
2019-03-24T11:45:52.271Z,2.40
2019-03-24T11:48:20.710Z,2.00
2019-03-24T11:50:51.014Z,2.70
2019-03-24T11:53:19.254Z,1.90
2019-03-24T11:55:47.568Z,2.17
2019-03-24T11:58:15.842Z,1.67
2019-03-24T12:00:44.140Z,1.90
2019-03-24T12:03:12.791Z,2.57
2019-03-24T12:05:41.060Z,3.37
2019-03-24T12:08:09.398Z,2.17
2019-03-24T12:10:37.667Z,1.80
2019-03-24T12:13:05.969Z,3.30
2019-03-24T12:15:34.208Z,2.67
2019-03-24T12:18:02.548Z,2.63
2019-03-24T12:20:31.235Z,3.70
2019-03-24T12:22:59.486Z,3.33
2019-03-24T12:25:27.725Z,3.83
2019-03-24T12:27:56.567Z,2.43
2019-03-24T12:30:24.856Z,2.50
2019-03-24T12:32:53.123Z,1.77
2019-03-24T12:35:21.715Z,2.30
2019-03-24T12:37:50.036Z,2.90
2019-03-24T12:40:18.339Z,2.43
2019-03-24T12:42:46.596Z,1.77
2019-03-24T12:45:14.920Z,2.00
2019-03-24T12:47:43.260Z,2.10
2019-03-24T12:50:11.496Z,3.27
2019-03-24T12:52:39.775Z,2.10
2019-03-24T12:55:08.034Z,2.77
2019-03-24T12:57:36.333Z,2.70
2019-03-24T13:00:10.402Z,2.63
2019-03-24T13:02:38.707Z,2.93
2019-03-24T13:05:09.949Z,1.47
2019-03-24T13:07:38.221Z,2.73
2019-03-24T13:10:06.970Z,2.10
2019-03-24T13:12:35.807Z,1.70
2019-03-24T13:15:06.904Z,2.63
2019-03-24T13:17:35.218Z,2.03
2019-03-24T13:20:05.663Z,2.50
2019-03-24T13:22:35.250Z,2.30
2019-03-24T13:25:05.720Z,2.73
2019-03-24T13:27:34.034Z,2.00
2019-03-24T13:30:02.310Z,2.50
2019-03-24T13:32:30.822Z,2.57
2019-03-24T13:34:59.068Z,2.67
2019-03-24T13:37:27.355Z,2.13
2019-03-24T13:39:55.745Z,2.10
2019-03-24T13:42:24.052Z,2.43
2019-03-24T13:44:52.407Z,1.70
2019-03-24T13:47:20.735Z,1.87
2019-03-24T13:49:48.994Z,1.40
2019-03-24T13:52:17.258Z,2.30
2019-03-24T13:54:45.589Z,1.60
2019-03-24T13:57:14.052Z,2.40
2019-03-24T13:59:42.347Z,2.33
2019-03-24T14:02:11.281Z,1.93
2019-03-24T14:04:39.695Z,2.30
2019-03-24T14:07:07.928Z,2.60
2019-03-24T14:09:36.266Z,2.93
2019-03-24T14:12:04.535Z,1.80
2019-03-24T14:14:32.920Z,2.33
2019-03-24T14:17:01.251Z,2.23
2019-03-24T14:19:29.482Z,2.00
2019-03-24T14:21:57.767Z,1.90
2019-03-24T14:24:26.008Z,1.73
2019-03-24T14:26:54.521Z,1.93
2019-03-24T14:29:22.823Z,2.10
2019-03-24T14:31:51.105Z,2.47
2019-03-24T14:34:19.485Z,2.43
2019-03-24T14:36:48.974Z,2.33
2019-03-24T14:39:17.214Z,2.13
2019-03-24T14:41:45.584Z,2.80
2019-03-24T14:44:13.919Z,1.97
2019-03-24T14:46:42.210Z,2.13
2019-03-24T14:49:10.501Z,2.67
2019-03-24T14:51:38.749Z,2.60
2019-03-24T14:54:07.050Z,3.33
2019-03-24T14:56:35.450Z,2.13
2019-03-24T14:59:03.689Z,1.93
2019-03-24T15:01:31.928Z,1.53
2019-03-24T15:04:00.310Z,1.93
2019-03-24T15:06:28.827Z,1.37
2019-03-24T15:08:57.306Z,2.00
2019-03-24T15:11:25.592Z,1.33
2019-03-24T15:13:53.883Z,1.57
2019-03-24T15:16:22.143Z,1.83
2019-03-24T15:18:50.723Z,2.40
2019-03-24T15:21:19.153Z,1.90
2019-03-24T15:23:47.511Z,1.40
2019-03-24T15:26:15.806Z,1.33
2019-03-24T15:28:44.215Z,1.83
2019-03-24T15:31:12.494Z,1.60
2019-03-24T15:33:40.760Z,2.10
2019-03-24T15:36:09.201Z,1.60
2019-03-24T15:38:37.434Z,1.93
2019-03-24T15:41:05.695Z,1.67
2019-03-24T15:43:34.112Z,1.83
2019-03-24T15:46:02.521Z,2.07
2019-03-24T15:48:30.828Z,1.90
2019-03-24T15:50:59.203Z,2.10
2019-03-24T15:53:27.590Z,2.10
2019-03-24T15:55:55.834Z,1.47
2019-03-24T15:58:24.079Z,1.83
2019-03-24T16:00:52.342Z,1.20
2019-03-24T16:03:20.585Z,1.43
2019-03-24T16:05:48.883Z,1.30
2019-03-24T16:08:17.598Z,1.23
2019-03-24T16:10:45.840Z,1.30
2019-03-24T16:13:14.227Z,1.53
2019-03-24T16:15:42.520Z,1.20
2019-03-24T16:18:10.764Z,1.30
2019-03-24T16:20:39.067Z,1.47
2019-03-24T16:23:07.428Z,1.20
2019-03-24T16:25:35.791Z,1.13
2019-03-24T16:28:04.457Z,1.47
2019-03-24T16:30:32.904Z,0.80
2019-03-24T16:33:01.147Z,1.37
2019-03-24T16:35:29.867Z,2.27
2019-03-24T16:37:58.156Z,2.23
2019-03-24T16:40:26.447Z,2.10
2019-03-24T16:42:54.732Z,1.90
2019-03-24T16:45:23.793Z,1.20
2019-03-24T16:47:52.070Z,2.43
2019-03-24T16:50:20.350Z,2.10
2019-03-24T16:52:48.737Z,1.60
2019-03-24T16:55:16.979Z,1.50
2019-03-24T16:57:45.541Z,1.57
2019-03-24T17:00:13.937Z,1.70
2019-03-24T17:02:42.175Z,2.00
2019-03-24T17:05:12.076Z,1.43
2019-03-24T17:07:40.369Z,1.10
2019-03-24T17:10:08.623Z,1.73
2019-03-24T17:12:36.959Z,1.77
2019-03-24T17:15:08.042Z,1.70
2019-03-24T17:17:36.273Z,1.50
2019-03-24T17:20:07.811Z,1.30
2019-03-24T17:22:36.217Z,1.93
2019-03-24T17:25:05.134Z,2.20
2019-03-24T17:27:33.481Z,1.80
2019-03-24T17:30:01.745Z,1.60
2019-03-24T17:32:29.970Z,1.90
2019-03-24T17:34:58.288Z,1.60
2019-03-24T17:37:26.583Z,1.97
2019-03-24T17:39:54.989Z,1.57
2019-03-24T17:42:23.272Z,2.20
2019-03-24T17:44:51.543Z,1.90
2019-03-24T17:47:19.840Z,2.07
2019-03-24T17:49:48.217Z,2.20
2019-03-24T17:52:16.461Z,2.70
2019-03-24T17:54:44.695Z,2.00
2019-03-24T17:57:12.959Z,3.20
2019-03-24T17:59:41.230Z,3.10
2019-03-24T18:02:14.311Z,3.27
2019-03-24T18:04:39.647Z,3.67
2019-03-24T18:07:07.887Z,3.53
2019-03-24T18:09:36.365Z,4.47
2019-03-24T18:12:04.657Z,3.00
2019-03-24T18:14:33.051Z,3.07
2019-03-24T18:17:01.719Z,3.10
2019-03-24T18:19:29.954Z,3.20
2019-03-24T18:21:58.392Z,3.63
2019-03-24T18:24:26.667Z,4.10
2019-03-24T18:26:54.926Z,3.67
2019-03-24T18:29:23.305Z,3.10
2019-03-24T18:31:51.615Z,3.13
2019-03-24T18:34:20.418Z,3.07
2019-03-24T18:36:48.708Z,2.80
2019-03-24T18:39:17.825Z,1.90
2019-03-24T18:41:46.123Z,2.63
2019-03-24T18:44:14.393Z,3.13
2019-03-24T18:46:42.684Z,2.30
2019-03-24T18:49:10.922Z,2.43
2019-03-24T18:51:39.429Z,2.10
2019-03-24T18:54:08.019Z,2.40
2019-03-24T18:56:36.391Z,2.50
2019-03-24T18:59:04.977Z,2.83
2019-03-24T19:01:33.287Z,2.60
2019-03-24T19:04:01.602Z,1.90
2019-03-24T19:06:29.978Z,3.00
2019-03-24T19:08:58.229Z,3.27
2019-03-24T19:11:26.506Z,2.30
2019-03-24T19:13:54.947Z,1.80
2019-03-24T19:16:23.398Z,1.87
2019-03-24T19:18:51.824Z,2.23
2019-03-24T19:21:20.092Z,3.80
2019-03-24T19:23:48.881Z,2.40
2019-03-24T19:26:17.459Z,2.10
2019-03-24T19:28:45.830Z,2.87
2019-03-24T19:31:14.094Z,2.20
2019-03-24T19:33:42.732Z,2.93
2019-03-24T19:36:10.979Z,2.83
2019-03-24T19:38:39.405Z,2.93
2019-03-24T19:41:07.708Z,2.97
2019-03-24T19:43:35.954Z,3.63
2019-03-24T19:46:04.607Z,3.30
2019-03-24T19:48:32.941Z,2.77
2019-03-24T19:51:01.317Z,4.20
2019-03-24T19:53:29.570Z,2.67
2019-03-24T19:55:58.661Z,3.20
2019-03-24T19:58:26.978Z,2.53
2019-03-24T20:00:55.273Z,2.87
2019-03-24T20:03:23.520Z,2.47
2019-03-24T20:05:51.802Z,2.97
2019-03-24T20:08:20.174Z,2.80
2019-03-24T20:10:48.421Z,3.00
2019-03-24T20:13:16.711Z,2.90
2019-03-24T20:15:45.172Z,4.13
2019-03-24T20:18:13.414Z,3.80
2019-03-24T20:20:41.707Z,3.07
2019-03-24T20:23:10.030Z,3.00
2019-03-24T20:25:38.262Z,3.10
2019-03-24T20:28:06.543Z,4.30
2019-03-24T20:30:34.833Z,5.20
2019-03-24T20:33:03.099Z,3.70
2019-03-24T20:35:31.772Z,3.20
2019-03-24T20:38:00.356Z,3.30
2019-03-24T20:40:28.700Z,2.77
2019-03-24T20:42:56.963Z,2.50
2019-03-24T20:45:25.332Z,4.20
2019-03-24T20:47:53.563Z,3.23
2019-03-24T20:50:21.940Z,3.50
2019-03-24T20:52:50.211Z,3.30
2019-03-24T20:55:19.571Z,2.83
2019-03-24T20:57:47.871Z,2.63
2019-03-24T21:00:19.379Z,2.73
2019-03-24T21:02:47.737Z,2.50
2019-03-24T21:05:16.002Z,2.80
2019-03-24T21:07:45.176Z,2.40
2019-03-24T21:10:13.637Z,3.13
2019-03-24T21:12:41.947Z,2.57
2019-03-24T21:15:11.664Z,2.57
2019-03-24T21:17:40.261Z,2.93
2019-03-24T21:20:08.610Z,2.63
2019-03-24T21:22:36.929Z,2.90
2019-03-24T21:25:06.298Z,2.37
2019-03-24T21:27:34.739Z,2.80
2019-03-24T21:30:03.277Z,2.70
2019-03-24T21:32:31.541Z,2.90
2019-03-24T21:35:00.073Z,3.00
2019-03-24T21:37:28.388Z,2.00
2019-03-24T21:39:56.673Z,2.30
2019-03-24T21:42:25.386Z,2.90
2019-03-24T21:44:54.072Z,1.80
2019-03-24T21:47:22.326Z,3.00
2019-03-24T21:49:50.596Z,2.63
2019-03-24T21:52:19.709Z,2.57
2019-03-24T21:54:48.037Z,3.03
2019-03-24T21:57:16.325Z,2.97
2019-03-24T21:59:44.842Z,3.90
2019-03-24T22:02:13.512Z,2.63
2019-03-24T22:04:41.764Z,2.70
2019-03-24T22:07:10.298Z,2.27
2019-03-24T22:09:39.248Z,3.60
2019-03-24T22:12:07.588Z,2.20
2019-03-24T22:14:35.903Z,2.13
2019-03-24T22:17:04.185Z,1.90
2019-03-24T22:19:32.460Z,2.90
2019-03-24T22:22:00.725Z,3.00
2019-03-24T22:24:29.123Z,2.53
2019-03-24T22:26:57.513Z,2.63
2019-03-24T22:29:25.856Z,2.40
2019-03-24T22:31:54.105Z,1.87
2019-03-24T22:34:22.473Z,1.50
2019-03-24T22:36:51.062Z,2.67
2019-03-24T22:39:19.428Z,2.00
2019-03-24T22:41:47.724Z,1.97
2019-03-24T22:44:15.961Z,1.90
2019-03-24T22:46:44.232Z,1.83
2019-03-24T22:49:12.658Z,2.30
2019-03-24T22:51:40.896Z,2.60
2019-03-24T22:54:09.137Z,2.37
2019-03-24T22:56:37.488Z,2.27
2019-03-24T22:59:05.781Z,2.43
2019-03-24T23:01:34.211Z,1.80
2019-03-24T23:04:02.459Z,3.17
2019-03-24T23:06:30.735Z,1.73
2019-03-24T23:08:59.099Z,2.57
2019-03-24T23:11:27.419Z,3.10
2019-03-24T23:13:55.670Z,3.40
2019-03-24T23:16:24.012Z,2.20
2019-03-24T23:18:52.375Z,2.53
2019-03-24T23:21:20.663Z,2.33
2019-03-24T23:23:48.946Z,2.97
2019-03-24T23:26:17.244Z,2.63
2019-03-24T23:28:45.511Z,3.23
2019-03-24T23:31:13.820Z,2.87
2019-03-24T23:33:42.197Z,3.07
2019-03-24T23:36:10.446Z,3.20
2019-03-24T23:38:39.312Z,3.07
2019-03-24T23:41:08.275Z,2.60
2019-03-24T23:43:36.642Z,3.07
2019-03-24T23:46:04.886Z,3.27
2019-03-24T23:48:33.339Z,4.20
2019-03-24T23:51:01.655Z,3.97
2019-03-24T23:53:30.027Z,3.30
2019-03-24T23:55:58.479Z,3.67
2019-03-24T23:58:39.891Z,3.17
